Time,TemperatureF,DewpointF,PressureIn,WindDirection,WindDirectionDegrees,WindSpeedMPH,WindSpeedGustMPH,Humidity,HourlyPrecipIn,Conditions,Clouds,dailyrainin,SolarRadiationWatts/m^2,SoftwareType,DateUTC
2013-03-03 00:00:00,29.7,20.5,29.91,West,269,2.0,5.0,68,0.00,,,0.00,0,WeatherCatV1.13B119,2013-03-03 05:00:00,
2013-03-03 00:05:00,29.7,20.5,29.91,NW,308,2.0,5.0,68,0.00,,,0.00,0,WeatherCatV1.13B119,2013-03-03 05:05:00,
2013-03-03 00:10:00,29.8,20.5,29.91,WNW,300,4.0,9.0,68,0.00,,,0.00,0,WeatherCatV1.13B119,2013-03-03 05:10:00,
2013-03-03 00:15:00,29.8,20.5,29.91,West,264,5.0,6.0,68,0.00,,,0.00,0,WeatherCatV1.13B119,2013-03-03 05:15:00,
2013-03-03 00:20:00,29.8,20.5,29.91,WNW,303,2.0,5.0,68,0.00,,,0.00,0,WeatherCatV1.13B119,2013-03-03 05:20:00,
2013-03-03 00:25:00,29.8,20.5,29.90,NW,310,4.0,6.0,68,0.00,,,0.00,0,WeatherCatV1.13B119,2013-03-03 05:25:00,
2013-03-03 00:31:00,29.8,20.5,29.91,WNW,298,2.0,3.0,68,0.00,,,0.00,0,WeatherCatV1.13B119,2013-03-03 05:31:00,
2013-03-03 00:36:00,29.9,20.6,29.90,WNW,293,3.0,5.0,68,0.00,,,0.00,0,WeatherCatV1.13B119,2013-03-03 05:36:00,
2013-03-03 00:41:00,29.8,20.5,29.90,NW,310,5.0,7.0,68,0.00,,,0.00,0,WeatherCatV1.13B119,2013-03-03 05:41:00,
2013-03-03 00:46:00,29.8,20.5,29.90,WNW,289,1.0,5.0,68,0.00,,,0.00,0,WeatherCatV1.13B119,2013-03-03 05:46:00,
2013-03-03 00:51:00,29.8,20.5,29.90,West,273,1.0,5.0,68,0.00,,,0.00,0,WeatherCatV1.13B119,2013-03-03 05:51:00,
2013-03-03 00:56:00,29.8,20.5,29.90,NNW,328,3.0,4.0,68,0.00,,,0.00,0,WeatherCatV1.13B119,2013-03-03 05:56:00,
2013-03-03 01:01:00,29.7,20.5,29.90,WNW,296,1.0,4.0,68,0.00,,,0.00,0,WeatherCatV1.13B119,2013-03-03 06:01:00,
2013-03-03 01:06:00,29.7,20.5,29.90,WNW,298,4.0,6.0,68,0.00,,,0.00,0,WeatherCatV1.13B119,2013-03-03 06:06:00,
2013-03-03 01:11:00,29.7,20.8,29.90,NW,312,3.0,8.0,69,0.00,,,0.00,0,WeatherCatV1.13B119,2013-03-03 06:11:00,
2013-03-03 01:16:00,29.7,20.8,29.91,WNW,291,5.0,5.0,69,0.00,,,0.00,0,WeatherCatV1.13B119,2013-03-03 06:16:00,
2013-03-03 01:21:00,29.6,20.7,29.90,WSW,250,2.0,7.0,69,0.00,,,0.00,0,WeatherCatV1.13B119,2013-03-03 06:21:00,
2013-03-03 01:26:00,29.6,21.0,29.91,West,271,3.0,5.0,70,0.00,,,0.00,0,WeatherCatV1.13B119,2013-03-03 06:26:00,
2013-03-03 01:31:00,29.6,21.0,29.91,WNW,291,3.0,3.0,70,0.00,,,0.00,0,WeatherCatV1.13B119,2013-03-03 06:31:00,
2013-03-03 01:36:00,29.6,21.0,29.90,NW,306,3.0,4.0,70,0.00,,,0.00,0,WeatherCatV1.13B119,2013-03-03 06:36:00,
2013-03-03 01:41:00,29.6,21.4,29.90,NW,313,5.0,5.0,71,0.00,,,0.00,0,WeatherCatV1.13B119,2013-03-03 06:41:00,
2013-03-03 01:46:00,29.6,21.4,29.91,NW,318,2.0,2.0,71,0.00,,,0.00,0,WeatherCatV1.13B119,2013-03-03 06:46:00,
2013-03-03 01:51:00,29.6,21.4,29.90,North,349,3.0,4.0,71,0.00,,,0.00,0,WeatherCatV1.13B119,2013-03-03 06:51:00,
2013-03-03 01:56:00,29.5,21.3,29.90,NW,308,4.0,5.0,71,0.00,,,0.00,0,WeatherCatV1.13B119,2013-03-03 06:56:00,
2013-03-03 02:01:00,29.6,21.4,29.90,NNW,342,1.0,2.0,71,0.00,,,0.00,0,WeatherCatV1.13B119,2013-03-03 07:01:00,
2013-03-03 02:06:00,29.6,21.7,29.90,NW,315,1.0,3.0,72,0.00,,,0.00,0,WeatherCatV1.13B119,2013-03-03 07:06:00,
2013-03-03 02:11:00,29.6,21.4,29.90,WNW,294,6.0,7.0,71,0.00,,,0.00,0,WeatherCatV1.13B119,2013-03-03 07:11:00,
2013-03-03 02:16:00,29.7,21.5,29.89,West,281,0.0,5.0,71,0.00,,,0.00,0,WeatherCatV1.13B119,2013-03-03 07:16:00,
2013-03-03 02:21:00,29.8,21.6,29.89,WNW,283,1.0,1.0,71,0.00,,,0.00,0,WeatherCatV1.13B119,2013-03-03 07:21:00,
2013-03-03 02:26:00,29.9,21.7,29.89,WNW,298,2.0,5.0,71,0.00,,,0.00,0,WeatherCatV1.13B119,2013-03-03 07:26:00,
2013-03-03 02:31:00,29.9,21.3,29.89,WSW,252,7.0,11.0,70,0.00,,,0.00,0,WeatherCatV1.13B119,2013-03-03 07:31:00,
2013-03-03 02:36:00,30.1,21.5,29.89,WNW,288,3.0,6.0,70,0.00,,,0.00,0,WeatherCatV1.13B119,2013-03-03 07:36:00,
2013-03-03 02:41:00,30.1,21.5,29.89,SW,231,5.0,5.0,70,0.00,,,0.00,0,WeatherCatV1.13B119,2013-03-03 07:41:00,
2013-03-03 02:46:00,30.1,21.5,29.88,WNW,294,7.0,10.0,70,0.00,,,0.00,0,WeatherCatV1.13B119,2013-03-03 07:46:00,
2013-03-03 02:51:00,30.2,21.6,29.88,NW,321,2.0,6.0,70,0.00,,,0.00,0,WeatherCatV1.13B119,2013-03-03 07:51:00,
2013-03-03 02:56:00,30.3,21.7,29.88,WNW,291,8.0,10.0,70,0.00,,,0.00,0,WeatherCatV1.13B119,2013-03-03 07:56:00,
2013-03-03 03:01:00,30.3,21.7,29.88,SW,234,2.0,2.0,70,0.00,,,0.00,0,WeatherCatV1.13B119,2013-03-03 08:01:00,
2013-03-03 03:02:00,30.3,21.7,29.88,West,279,5.0,5.0,70,0.00,,,0.00,0,WeatherCatV1.13B119,2013-03-03 08:02:00,
2013-03-03 03:07:00,30.3,21.7,29.88,West,278,6.0,8.0,70,0.00,,,0.00,0,WeatherCatV1.13B119,2013-03-03 08:07:00,
2013-03-03 03:12:00,30.3,21.4,29.88,NW,304,3.0,4.0,69,0.00,,,0.00,0,WeatherCatV1.13B119,2013-03-03 08:12:00,
2013-03-03 03:17:00,30.3,21.7,29.88,NNW,336,4.0,7.0,70,0.00,,,0.00,0,WeatherCatV1.13B119,2013-03-03 08:17:00,
2013-03-03 03:22:00,30.4,21.5,29.88,NW,308,1.0,4.0,69,0.00,,,0.00,0,WeatherCatV1.13B119,2013-03-03 08:22:00,
2013-03-03 03:27:00,30.4,21.8,29.88,WNW,289,0.0,3.0,70,0.00,,,0.00,0,WeatherCatV1.13B119,2013-03-03 08:27:00,
2013-03-03 03:32:00,30.4,21.5,29.88,NW,306,0.0,1.0,69,0.00,,,0.00,0,WeatherCatV1.13B119,2013-03-03 08:32:00,
2013-03-03 03:37:00,30.4,21.5,29.88,West,279,2.0,3.0,69,0.00,,,0.00,0,WeatherCatV1.13B119,2013-03-03 08:37:00,
2013-03-03 03:42:00,30.4,21.8,29.87,NW,325,1.0,5.0,70,0.00,,,0.00,0,WeatherCatV1.13B119,2013-03-03 08:42:00,
2013-03-03 03:47:00,30.5,21.6,29.87,WNW,291,3.0,4.0,69,0.00,,,0.00,0,WeatherCatV1.13B119,2013-03-03 08:47:00,
2013-03-03 03:52:00,30.5,21.6,29.87,NW,308,0.0,3.0,69,0.00,,,0.00,0,WeatherCatV1.13B119,2013-03-03 08:52:00,
2013-03-03 03:57:00,30.5,21.6,29.87,NW,312,2.0,2.0,69,0.00,,,0.00,0,WeatherCatV1.13B119,2013-03-03 08:57:00,
2013-03-03 04:02:00,30.5,21.9,29.87,NW,304,2.0,2.0,70,0.00,,,0.00,0,WeatherCatV1.13B119,2013-03-03 09:02:00,
2013-03-03 04:05:00,30.5,21.9,29.87,NW,306,1.0,5.0,70,0.00,,,0.00,0,WeatherCatV1.13B119,2013-03-03 09:05:00,
2013-03-03 04:10:00,30.5,21.9,29.87,WNW,291,4.0,4.0,70,0.00,,,0.00,0,WeatherCatV1.13B119,2013-03-03 09:10:00,
2013-03-03 04:15:00,30.6,21.7,29.87,WNW,293,1.0,7.0,69,0.00,,,0.00,0,WeatherCatV1.13B119,2013-03-03 09:15:00,
2013-03-03 04:20:00,30.6,22.0,29.87,WNW,293,3.0,3.0,70,0.00,,,0.00,0,WeatherCatV1.13B119,2013-03-03 09:20:00,
2013-03-03 04:25:00,30.6,21.7,29.87,WNW,300,1.0,3.0,69,0.00,,,0.00,0,WeatherCatV1.13B119,2013-03-03 09:25:00,
2013-03-03 04:30:00,30.6,21.7,29.88,NW,312,2.0,2.0,69,0.00,,,0.00,0,WeatherCatV1.13B119,2013-03-03 09:30:00,
2013-03-03 04:35:00,30.6,21.7,29.87,NW,308,3.0,4.0,69,0.00,,,0.00,0,WeatherCatV1.13B119,2013-03-03 09:35:00,
2013-03-03 04:40:00,30.6,21.7,29.88,WNW,283,2.0,3.0,69,0.00,,,0.00,0,WeatherCatV1.13B119,2013-03-03 09:40:00,
2013-03-03 04:45:00,30.6,21.7,29.88,WNW,285,1.0,6.0,69,0.00,,,0.00,0,WeatherCatV1.13B119,2013-03-03 09:45:00,
2013-03-03 04:50:00,30.7,21.8,29.88,SW,221,4.0,8.0,69,0.00,,,0.00,0,WeatherCatV1.13B119,2013-03-03 09:50:00,
2013-03-03 04:55:00,30.7,21.8,29.88,WNW,291,1.0,2.0,69,0.00,,,0.00,0,WeatherCatV1.13B119,2013-03-03 09:55:00,
2013-03-03 05:00:00,30.7,22.1,29.88,West,263,2.0,3.0,70,0.00,,,0.00,0,WeatherCatV1.13B119,2013-03-03 10:00:00,
2013-03-03 05:05:00,30.7,21.4,29.88,SE,135,0.0,2.0,68,0.00,,,0.00,0,WeatherCatV1.13B119,2013-03-03 10:05:00,
2013-03-03 05:10:00,30.7,21.8,29.88,South,181,1.0,3.0,69,0.00,,,0.00,0,WeatherCatV1.13B119,2013-03-03 10:10:00,
2013-03-03 05:15:00,30.7,21.8,29.88,WNW,294,3.0,5.0,69,0.00,,,0.00,0,WeatherCatV1.13B119,2013-03-03 10:15:00,
2013-03-03 05:20:00,30.7,22.1,29.88,WNW,285,1.0,2.0,70,0.00,,,0.00,0,WeatherCatV1.13B119,2013-03-03 10:20:00,
2013-03-03 05:25:00,30.6,21.7,29.88,SSW,202,1.0,3.0,69,0.00,,,0.00,0,WeatherCatV1.13B119,2013-03-03 10:25:00,
2013-03-03 05:30:00,30.6,21.7,29.88,SW,225,2.0,5.0,69,0.00,,,0.00,0,WeatherCatV1.13B119,2013-03-03 10:30:00,
2013-03-03 05:35:00,30.6,22.0,29.88,West,262,3.0,4.0,70,0.00,,,0.00,0,WeatherCatV1.13B119,2013-03-03 10:35:00,
2013-03-03 05:40:00,30.6,22.0,29.88,WNW,287,5.0,5.0,70,0.00,,,0.00,0,WeatherCatV1.13B119,2013-03-03 10:40:00,
2013-03-03 05:45:00,30.6,21.7,29.88,NW,305,0.0,2.0,69,0.00,,,0.00,0,WeatherCatV1.13B119,2013-03-03 10:45:00,
2013-03-03 05:50:00,30.6,22.0,29.88,West,275,5.0,11.0,70,0.00,,,0.00,0,WeatherCatV1.13B119,2013-03-03 10:50:00,
2013-03-03 05:55:00,30.6,21.7,29.88,West,273,6.0,11.0,69,0.00,,,0.00,0,WeatherCatV1.13B119,2013-03-03 10:55:00,
2013-03-03 06:00:00,30.7,21.8,29.88,NW,306,6.0,6.0,69,0.00,,,0.00,0,WeatherCatV1.13B119,2013-03-03 11:00:00,
2013-03-03 06:05:00,30.7,21.8,29.89,WNW,294,2.0,3.0,69,0.00,,,0.00,0,WeatherCatV1.13B119,2013-03-03 11:05:00,
2013-03-03 06:10:00,30.7,21.8,29.88,NW,308,3.0,3.0,69,0.00,,,0.00,0,WeatherCatV1.13B119,2013-03-03 11:10:00,
2013-03-03 06:15:00,30.7,21.4,29.89,West,280,2.0,5.0,68,0.00,,,0.00,0,WeatherCatV1.13B119,2013-03-03 11:15:00,
2013-03-03 06:20:00,30.7,21.8,29.89,NNW,337,2.0,3.0,69,0.00,,,0.00,0,WeatherCatV1.13B119,2013-03-03 11:20:00,
2013-03-03 06:26:00,30.7,21.4,29.89,West,275,3.0,4.0,68,0.00,,,0.00,0,WeatherCatV1.13B119,2013-03-03 11:26:00,
2013-03-03 06:31:00,30.6,21.0,29.88,WNW,289,3.0,3.0,67,0.00,,,0.00,0,WeatherCatV1.13B119,2013-03-03 11:31:00,
2013-03-03 06:36:00,30.6,20.6,29.88,NNW,330,2.0,5.0,66,0.00,,,0.00,0,WeatherCatV1.13B119,2013-03-03 11:36:00,
2013-03-03 06:41:00,30.5,20.2,29.88,West,262,2.0,6.0,65,0.00,,,0.00,5,WeatherCatV1.13B119,2013-03-03 11:41:00,
2013-03-03 06:46:00,30.5,19.8,29.89,WNW,289,5.0,8.0,64,0.00,,,0.00,9,WeatherCatV1.13B119,2013-03-03 11:46:00,
2013-03-03 06:51:00,30.5,19.4,29.89,NW,307,3.0,4.0,63,0.00,,,0.00,12,WeatherCatV1.13B119,2013-03-03 11:51:00,
2013-03-03 06:56:00,30.5,19.1,29.89,WNW,302,0.0,0.0,62,0.00,,,0.00,16,WeatherCatV1.13B119,2013-03-03 11:56:00,
2013-03-03 07:01:00,30.4,18.6,29.89,NNW,342,2.0,7.0,61,0.00,,,0.00,19,WeatherCatV1.13B119,2013-03-03 12:01:00,
2013-03-03 07:06:00,30.5,18.7,29.89,NNE,31,3.0,3.0,61,0.00,,,0.00,23,WeatherCatV1.13B119,2013-03-03 12:06:00,
2013-03-03 07:11:00,30.5,18.3,29.89,NW,318,0.0,5.0,60,0.00,,,0.00,30,WeatherCatV1.13B119,2013-03-03 12:11:00,
2013-03-03 07:16:00,30.4,18.2,29.89,West,266,4.0,8.0,60,0.00,,,0.00,67,WeatherCatV1.13B119,2013-03-03 12:16:00,
2013-03-03 07:21:00,30.7,18.5,29.89,WNW,295,2.0,8.0,60,0.00,,,0.00,91,WeatherCatV1.13B119,2013-03-03 12:21:00,
2013-03-03 07:26:00,31.1,18.5,29.90,NW,304,0.0,3.0,59,0.00,,,0.00,118,WeatherCatV1.13B119,2013-03-03 12:26:00,
2013-03-03 07:31:00,31.5,18.4,29.89,WNW,289,3.0,11.0,58,0.00,,,0.00,134,WeatherCatV1.13B119,2013-03-03 12:31:00,
2013-03-03 07:36:00,31.9,18.4,29.90,West,260,5.0,7.0,57,0.00,,,0.00,160,WeatherCatV1.13B119,2013-03-03 12:36:00,
2013-03-03 07:41:00,32.3,18.4,29.90,NW,311,1.0,4.0,56,0.00,,,0.00,158,WeatherCatV1.13B119,2013-03-03 12:41:00,
2013-03-03 07:46:00,32.4,18.5,29.90,WNW,289,1.0,4.0,56,0.00,,,0.00,151,WeatherCatV1.13B119,2013-03-03 12:46:00,
2013-03-03 07:51:00,32.3,18.4,29.90,West,278,6.0,13.0,56,0.00,,,0.00,65,WeatherCatV1.13B119,2013-03-03 12:51:00,
2013-03-03 07:53:00,32.2,18.7,29.90,WNW,285,6.0,13.0,57,0.00,,,0.00,62,WeatherCatV1.13B119,2013-03-03 12:53:00,
2013-03-03 07:58:00,31.8,18.7,29.91,WNW,294,3.0,6.0,58,0.00,,,0.00,65,WeatherCatV1.13B119,2013-03-03 12:58:00,
2013-03-03 08:03:00,31.5,19.2,29.91,West,269,5.0,8.0,60,0.00,,,0.00,63,WeatherCatV1.13B119,2013-03-03 13:03:00,
2013-03-03 08:08:00,31.3,19.8,29.91,NW,316,2.0,7.0,62,0.00,,,0.00,69,WeatherCatV1.13B119,2013-03-03 13:08:00,
2013-03-03 08:13:00,31.2,20.1,29.91,West,275,3.0,3.0,63,0.00,,,0.00,104,WeatherCatV1.13B119,2013-03-03 13:13:00,
2013-03-03 08:18:00,31.2,20.1,29.91,West,266,8.0,8.0,63,0.00,,,0.00,100,WeatherCatV1.13B119,2013-03-03 13:18:00,
2013-03-03 08:23:00,31.2,20.5,29.91,WSW,246,4.0,5.0,64,0.00,,,0.00,81,WeatherCatV1.13B119,2013-03-03 13:23:00,
2013-03-03 08:28:00,31.0,21.0,29.91,NW,309,2.0,5.0,66,0.00,,,0.00,83,WeatherCatV1.13B119,2013-03-03 13:28:00,
2013-03-03 08:33:00,30.8,21.2,29.91,WSW,252,11.0,11.0,67,0.00,,,0.00,88,WeatherCatV1.13B119,2013-03-03 13:33:00,
2013-03-03 08:38:00,30.7,21.8,29.91,NW,321,2.0,4.0,69,0.00,,,0.00,84,WeatherCatV1.13B119,2013-03-03 13:38:00,
2013-03-03 08:39:00,30.7,21.8,29.91,NW,310,2.0,4.0,69,0.00,,,0.00,81,WeatherCatV1.13B119,2013-03-03 13:39:00,
2013-03-03 08:44:00,30.7,21.8,29.92,WNW,291,6.0,6.0,69,0.00,,,0.00,88,WeatherCatV1.13B119,2013-03-03 13:44:00,
2013-03-03 08:49:00,30.6,22.0,29.91,WNW,303,9.0,9.0,70,0.00,,,0.00,132,WeatherCatV1.13B119,2013-03-03 13:49:00,
2013-03-03 08:54:00,30.6,22.7,29.91,North,353,4.0,7.0,72,0.00,,,0.00,156,WeatherCatV1.13B119,2013-03-03 13:54:00,
2013-03-03 08:59:00,30.7,22.8,29.92,West,271,5.0,11.0,72,0.00,,,0.00,156,WeatherCatV1.13B119,2013-03-03 13:59:00,
2013-03-03 09:04:00,30.8,22.5,29.92,NW,305,3.0,8.0,71,0.00,,,0.00,253,WeatherCatV1.13B119,2013-03-03 14:04:00,
2013-03-03 09:09:00,31.2,22.2,29.92,NW,304,12.0,12.0,69,0.00,,,0.00,380,WeatherCatV1.13B119,2013-03-03 14:09:00,
2013-03-03 09:16:00,31.6,21.9,29.91,NW,318,8.0,8.0,67,0.00,,,0.00,244,WeatherCatV1.13B119,2013-03-03 14:16:00,
2013-03-03 09:21:00,31.7,22.0,29.91,West,281,8.0,9.0,67,0.00,,,0.00,186,WeatherCatV1.13B119,2013-03-03 14:21:00,
2013-03-03 09:26:00,31.5,21.5,29.91,WNW,288,6.0,9.0,66,0.00,,,0.00,165,WeatherCatV1.13B119,2013-03-03 14:26:00,
2013-03-03 09:31:00,31.5,21.1,29.91,NW,305,4.0,8.0,65,0.00,,,0.00,142,WeatherCatV1.13B119,2013-03-03 14:31:00,
2013-03-03 09:36:00,31.5,20.4,29.91,WNW,299,8.0,9.0,63,0.00,,,0.00,105,WeatherCatV1.13B119,2013-03-03 14:36:00,
2013-03-03 09:41:00,31.4,19.1,29.90,NW,310,6.0,15.0,60,0.00,,,0.00,128,WeatherCatV1.13B119,2013-03-03 14:41:00,
2013-03-03 09:46:00,31.6,19.7,29.91,WNW,283,3.0,5.0,61,0.00,,,0.00,174,WeatherCatV1.13B119,2013-03-03 14:46:00,
2013-03-03 09:51:00,32.0,19.3,29.90,WNW,291,9.0,14.0,59,0.00,,,0.00,264,WeatherCatV1.13B119,2013-03-03 14:51:00,
2013-03-03 09:56:00,32.6,19.5,29.90,NW,306,4.0,5.0,58,0.00,,,0.00,178,WeatherCatV1.13B119,2013-03-03 14:56:00,
2013-03-03 09:58:00,32.7,20.0,29.90,WNW,300,6.0,8.0,59,0.00,,,0.00,155,WeatherCatV1.13B119,2013-03-03 14:58:00,
2013-03-03 10:03:00,33.0,19.5,29.90,NNW,333,6.0,10.0,57,0.00,,,0.00,155,WeatherCatV1.13B119,2013-03-03 15:03:00,
2013-03-03 10:08:00,32.9,18.9,29.90,WNW,292,9.0,13.0,56,0.00,,,0.00,137,WeatherCatV1.13B119,2013-03-03 15:08:00,
2013-03-03 10:13:00,32.8,18.9,29.90,North,7,2.0,11.0,56,0.00,,,0.00,134,WeatherCatV1.13B119,2013-03-03 15:13:00,
2013-03-03 10:18:00,32.8,18.9,29.90,NW,316,3.0,12.0,56,0.00,,,0.00,146,WeatherCatV1.13B119,2013-03-03 15:18:00,
2013-03-03 10:23:00,33.0,18.6,29.90,NW,313,6.0,12.0,55,0.00,,,0.00,134,WeatherCatV1.13B119,2013-03-03 15:23:00,
2013-03-03 10:28:00,33.0,18.6,29.90,WNW,298,5.0,9.0,55,0.00,,,0.00,137,WeatherCatV1.13B119,2013-03-03 15:28:00,
2013-03-03 10:33:00,33.1,18.3,29.90,NW,310,11.0,16.0,54,0.00,,,0.00,171,WeatherCatV1.13B119,2013-03-03 15:33:00,
2013-03-03 10:38:00,33.1,18.3,29.89,West,277,7.0,12.0,54,0.00,,,0.00,169,WeatherCatV1.13B119,2013-03-03 15:38:00,
2013-03-03 10:43:00,33.2,18.8,29.89,SW,235,3.0,4.0,55,0.00,,,0.00,246,WeatherCatV1.13B119,2013-03-03 15:43:00,
2013-03-03 10:48:00,33.4,18.1,29.90,NW,316,9.0,15.0,53,0.00,,,0.00,172,WeatherCatV1.13B119,2013-03-03 15:48:00,
2013-03-03 10:53:00,33.3,18.5,29.90,NW,304,8.0,11.0,54,0.00,,,0.00,200,WeatherCatV1.13B119,2013-03-03 15:53:00,
2013-03-03 10:58:00,33.3,18.5,29.90,NNW,327,3.0,6.0,54,0.00,,,0.00,213,WeatherCatV1.13B119,2013-03-03 15:58:00,
2013-03-03 11:03:00,33.4,18.1,29.90,WSW,248,5.0,9.0,53,0.00,,,0.00,221,WeatherCatV1.13B119,2013-03-03 16:03:00,
2013-03-03 11:08:00,33.7,18.4,29.89,West,280,7.0,7.0,53,0.00,,,0.00,174,WeatherCatV1.13B119,2013-03-03 16:08:00,
2013-03-03 11:13:00,33.8,18.5,29.89,West,271,5.0,11.0,53,0.00,,,0.00,183,WeatherCatV1.13B119,2013-03-03 16:13:00,
2013-03-03 11:18:00,33.9,18.2,29.89,WSW,258,3.0,8.0,52,0.00,,,0.00,250,WeatherCatV1.13B119,2013-03-03 16:18:00,
2013-03-03 11:23:00,34.2,18.9,29.89,West,280,8.0,14.0,53,0.00,,,0.00,332,WeatherCatV1.13B119,2013-03-03 16:23:00,
2013-03-03 11:28:00,34.4,18.2,29.89,North,349,3.0,14.0,51,0.00,,,0.00,381,WeatherCatV1.13B119,2013-03-03 16:28:00,
2013-03-03 11:33:00,34.8,18.5,29.89,NW,307,4.0,6.0,51,0.00,,,0.00,420,WeatherCatV1.13B119,2013-03-03 16:33:00,
2013-03-03 11:38:00,35.2,19.4,29.89,NW,311,4.0,5.0,52,0.00,,,0.00,357,WeatherCatV1.13B119,2013-03-03 16:38:00,
2013-03-03 11:43:00,35.7,18.4,29.89,NW,308,3.0,9.0,49,0.00,,,0.00,561,WeatherCatV1.13B119,2013-03-03 16:43:00,
2013-03-03 11:48:00,36.0,18.2,29.89,NW,313,4.0,10.0,48,0.00,,,0.00,288,WeatherCatV1.13B119,2013-03-03 16:48:00,
2013-03-03 11:53:00,35.7,18.4,29.88,West,280,6.0,9.0,49,0.00,,,0.00,301,WeatherCatV1.13B119,2013-03-03 16:53:00,
2013-03-03 11:58:00,35.9,19.1,29.88,NNE,21,2.0,5.0,50,0.00,,,0.00,255,WeatherCatV1.13B119,2013-03-03 16:58:00,
2013-03-03 12:03:00,36.4,19.1,29.88,WNW,293,5.0,16.0,49,0.00,,,0.00,243,WeatherCatV1.13B119,2013-03-03 17:03:00,
2013-03-03 12:08:00,36.3,19.0,29.88,WNW,292,7.0,8.0,49,0.00,,,0.00,174,WeatherCatV1.13B119,2013-03-03 17:08:00,
2013-03-03 12:13:00,35.5,17.8,29.88,West,264,5.0,14.0,48,0.00,,,0.00,262,WeatherCatV1.13B119,2013-03-03 17:13:00,
2013-03-03 12:17:00,35.2,18.9,29.88,West,266,8.0,8.0,51,0.00,,,0.00,251,WeatherCatV1.13B119,2013-03-03 17:17:00,
2013-03-03 12:22:00,35.2,18.4,29.88,WSW,255,5.0,11.0,50,0.00,,,0.00,236,WeatherCatV1.13B119,2013-03-03 17:22:00,
2013-03-03 12:27:00,35.3,18.5,29.88,NW,318,11.0,14.0,50,0.00,,,0.00,262,WeatherCatV1.13B119,2013-03-03 17:27:00,
2013-03-03 12:30:00,35.2,18.4,29.88,NNW,328,5.0,12.0,50,0.00,,,0.00,248,WeatherCatV1.13B119,2013-03-03 17:30:00,
2013-03-03 12:35:00,35.1,18.4,29.88,WNW,285,5.0,8.0,50,0.00,,,0.00,258,WeatherCatV1.13B119,2013-03-03 17:35:00,
2013-03-03 12:40:00,35.1,18.4,29.88,WNW,292,8.0,8.0,50,0.00,,,0.00,225,WeatherCatV1.13B119,2013-03-03 17:40:00,
2013-03-03 12:45:00,35.3,18.5,29.88,WNW,293,9.0,14.0,50,0.00,,,0.00,336,WeatherCatV1.13B119,2013-03-03 17:45:00,
2013-03-03 12:50:00,35.8,19.0,29.88,WNW,302,9.0,15.0,50,0.00,,,0.00,408,WeatherCatV1.13B119,2013-03-03 17:50:00,
2013-03-03 12:55:00,35.7,18.4,29.87,NW,306,3.0,10.0,49,0.00,,,0.00,281,WeatherCatV1.13B119,2013-03-03 17:55:00,
2013-03-03 13:00:00,35.8,18.5,29.87,WSW,246,3.0,7.0,49,0.00,,,0.00,309,WeatherCatV1.13B119,2013-03-03 18:00:00,
2013-03-03 13:05:00,35.9,18.6,29.87,WNW,283,10.0,13.0,49,0.00,,,0.00,360,WeatherCatV1.13B119,2013-03-03 18:05:00,
2013-03-03 13:10:00,36.1,18.3,29.87,WNW,295,10.0,11.0,48,0.00,,,0.00,302,WeatherCatV1.13B119,2013-03-03 18:10:00,
2013-03-03 13:15:00,36.0,18.2,29.87,West,273,14.0,14.0,48,0.00,,,0.00,220,WeatherCatV1.13B119,2013-03-03 18:15:00,
2013-03-03 13:20:00,35.7,18.0,29.87,NNW,342,1.0,7.0,48,0.00,,,0.00,214,WeatherCatV1.13B119,2013-03-03 18:20:00,
2013-03-03 13:25:00,35.8,18.5,29.86,ENE,77,8.0,10.0,49,0.00,,,0.00,237,WeatherCatV1.13B119,2013-03-03 18:25:00,
2013-03-03 13:30:00,35.9,18.1,29.86,NW,312,3.0,14.0,48,0.00,,,0.00,237,WeatherCatV1.13B119,2013-03-03 18:30:00,
2013-03-03 13:35:00,35.7,18.4,29.86,WNW,289,5.0,7.0,49,0.00,,,0.00,267,WeatherCatV1.13B119,2013-03-03 18:35:00,
2013-03-03 13:40:00,35.8,18.5,29.86,WNW,299,4.0,9.0,49,0.00,,,0.00,234,WeatherCatV1.13B119,2013-03-03 18:40:00,
2013-03-03 13:45:00,35.8,18.1,29.86,WNW,296,5.0,7.0,48,0.00,,,0.00,272,WeatherCatV1.13B119,2013-03-03 18:45:00,
2013-03-03 13:50:00,36.0,18.2,29.86,NW,313,8.0,11.0,48,0.00,,,0.00,244,WeatherCatV1.13B119,2013-03-03 18:50:00,
2013-03-03 13:55:00,35.7,18.0,29.86,NW,308,5.0,17.0,48,0.00,,,0.00,213,WeatherCatV1.13B119,2013-03-03 18:55:00,
2013-03-03 14:00:00,35.7,18.9,29.86,WNW,301,8.0,12.0,50,0.00,,,0.00,255,WeatherCatV1.13B119,2013-03-03 19:00:00,
2013-03-03 14:05:00,36.0,18.7,29.86,North,359,8.0,12.0,49,0.00,,,0.00,202,WeatherCatV1.13B119,2013-03-03 19:05:00,
2013-03-03 14:10:00,35.9,18.1,29.86,West,268,5.0,7.0,48,0.00,,,0.00,225,WeatherCatV1.13B119,2013-03-03 19:10:00,
2013-03-03 14:15:00,36.0,18.2,29.86,North,351,5.0,5.0,48,0.00,,,0.00,243,WeatherCatV1.13B119,2013-03-03 19:15:00,
2013-03-03 14:20:00,36.2,18.9,29.85,WNW,292,5.0,8.0,49,0.00,,,0.00,241,WeatherCatV1.13B119,2013-03-03 19:20:00,
2013-03-03 14:25:00,36.5,18.7,29.85,NNE,26,1.0,9.0,48,0.00,,,0.00,236,WeatherCatV1.13B119,2013-03-03 19:25:00,
2013-03-03 14:32:00,36.6,18.3,29.85,NW,313,4.0,12.0,47,0.00,,,0.00,244,WeatherCatV1.13B119,2013-03-03 19:32:00,
2013-03-03 14:37:00,36.7,18.9,29.85,NW,318,9.0,12.0,48,0.00,,,0.00,251,WeatherCatV1.13B119,2013-03-03 19:37:00,
2013-03-03 14:42:00,36.8,18.5,29.85,West,275,5.0,9.0,47,0.00,,,0.00,329,WeatherCatV1.13B119,2013-03-03 19:42:00,
2013-03-03 14:47:00,37.2,18.8,29.85,WNW,299,7.0,11.0,47,0.00,,,0.00,302,WeatherCatV1.13B119,2013-03-03 19:47:00,
2013-03-03 14:50:00,37.2,18.8,29.85,NW,316,5.0,15.0,47,0.00,,,0.00,330,WeatherCatV1.13B119,2013-03-03 19:50:00,
2013-03-03 14:55:00,37.4,19.0,29.85,WNW,300,2.0,10.0,47,0.00,,,0.00,322,WeatherCatV1.13B119,2013-03-03 19:55:00,
2013-03-03 15:00:00,37.3,18.9,29.85,WSW,253,3.0,11.0,47,0.00,,,0.00,206,WeatherCatV1.13B119,2013-03-03 20:00:00,
2013-03-03 15:05:00,36.9,18.6,29.85,West,267,10.0,10.0,47,0.00,,,0.00,185,WeatherCatV1.13B119,2013-03-03 20:05:00,
2013-03-03 15:10:00,36.4,18.6,29.85,West,264,7.0,7.0,48,0.00,,,0.00,183,WeatherCatV1.13B119,2013-03-03 20:10:00,
2013-03-03 15:15:00,36.3,19.0,29.85,WNW,284,1.0,5.0,49,0.00,,,0.00,193,WeatherCatV1.13B119,2013-03-03 20:15:00,
2013-03-03 15:17:00,36.3,19.0,29.85,WSW,258,3.0,10.0,49,0.00,,,0.00,186,WeatherCatV1.13B119,2013-03-03 20:17:00,
2013-03-03 15:22:00,36.4,19.1,29.85,SW,227,5.0,15.0,49,0.00,,,0.00,172,WeatherCatV1.13B119,2013-03-03 20:22:00,
2013-03-03 15:27:00,36.0,19.2,29.85,WSW,238,4.0,11.0,50,0.00,,,0.00,172,WeatherCatV1.13B119,2013-03-03 20:27:00,
2013-03-03 15:32:00,35.9,19.1,29.86,West,270,5.0,8.0,50,0.00,,,0.00,171,WeatherCatV1.13B119,2013-03-03 20:32:00,
2013-03-03 15:37:00,35.9,19.6,29.86,West,266,6.0,10.0,51,0.00,,,0.00,178,WeatherCatV1.13B119,2013-03-03 20:37:00,
2013-03-03 15:42:00,35.9,19.1,29.86,West,275,5.0,11.0,50,0.00,,,0.00,165,WeatherCatV1.13B119,2013-03-03 20:42:00,
2013-03-03 15:47:00,35.6,18.8,29.86,NW,312,6.0,9.0,50,0.00,,,0.00,165,WeatherCatV1.13B119,2013-03-03 20:47:00,
2013-03-03 15:52:00,35.8,19.5,29.86,WSW,245,3.0,9.0,51,0.00,,,0.00,174,WeatherCatV1.13B119,2013-03-03 20:52:00,
2013-03-03 15:54:00,35.9,19.6,29.86,WNW,291,7.0,7.0,51,0.00,,,0.00,188,WeatherCatV1.13B119,2013-03-03 20:54:00,
2013-03-03 15:59:00,36.0,19.6,29.86,NNW,327,6.0,6.0,51,0.00,,,0.00,181,WeatherCatV1.13B119,2013-03-03 20:59:00,
2013-03-03 16:04:00,35.9,19.1,29.86,WNW,296,4.0,11.0,50,0.00,,,0.00,174,WeatherCatV1.13B119,2013-03-03 21:04:00,
2013-03-03 16:09:00,36.0,19.6,29.86,WSW,251,6.0,11.0,51,0.00,,,0.00,306,WeatherCatV1.13B119,2013-03-03 21:09:00,
2013-03-03 16:14:00,36.0,19.6,29.87,WNW,300,2.0,5.0,51,0.00,,,0.00,216,WeatherCatV1.13B119,2013-03-03 21:14:00,
2013-03-03 16:19:00,36.1,20.2,29.87,WNW,282,4.0,5.0,52,0.00,,,0.00,223,WeatherCatV1.13B119,2013-03-03 21:19:00,
2013-03-03 16:24:00,36.4,20.0,29.87,WSW,247,4.0,4.0,51,0.00,,,0.00,185,WeatherCatV1.13B119,2013-03-03 21:24:00,
2013-03-03 16:29:00,36.2,20.3,29.87,North,359,4.0,8.0,52,0.00,,,0.00,86,WeatherCatV1.13B119,2013-03-03 21:29:00,
2013-03-03 16:34:00,35.8,19.9,29.87,NNW,339,5.0,11.0,52,0.00,,,0.00,83,WeatherCatV1.13B119,2013-03-03 21:34:00,
2013-03-03 16:39:00,35.6,19.7,29.87,West,271,6.0,10.0,52,0.00,,,0.00,246,WeatherCatV1.13B119,2013-03-03 21:39:00,
2013-03-03 16:44:00,35.8,20.4,29.88,NW,325,4.0,6.0,53,0.00,,,0.00,207,WeatherCatV1.13B119,2013-03-03 21:44:00,
2013-03-03 16:49:00,35.9,20.0,29.88,West,263,6.0,13.0,52,0.00,,,0.00,137,WeatherCatV1.13B119,2013-03-03 21:49:00,
2013-03-03 16:54:00,35.9,20.0,29.88,West,261,5.0,5.0,52,0.00,,,0.00,155,WeatherCatV1.13B119,2013-03-03 21:54:00,
2013-03-03 16:59:00,35.7,20.3,29.88,West,271,6.0,11.0,53,0.00,,,0.00,118,WeatherCatV1.13B119,2013-03-03 21:59:00,
2013-03-03 17:04:00,35.4,20.0,29.88,NW,306,5.0,5.0,53,0.00,,,0.00,60,WeatherCatV1.13B119,2013-03-03 22:04:00,
2013-03-03 17:09:00,35.0,19.6,29.88,West,274,3.0,9.0,53,0.00,,,0.00,93,WeatherCatV1.13B119,2013-03-03 22:09:00,
2013-03-03 17:14:00,34.8,19.9,29.88,NW,308,3.0,7.0,54,0.00,,,0.00,62,WeatherCatV1.13B119,2013-03-03 22:14:00,
2013-03-03 17:17:00,34.7,19.8,29.88,WNW,291,9.0,9.0,54,0.00,,,0.00,56,WeatherCatV1.13B119,2013-03-03 22:17:00,
2013-03-03 17:22:00,34.4,19.5,29.89,NW,309,7.0,8.0,54,0.00,,,0.00,54,WeatherCatV1.13B119,2013-03-03 22:22:00,
2013-03-03 17:27:00,34.1,19.6,29.89,NW,306,2.0,6.0,55,0.00,,,0.00,49,WeatherCatV1.13B119,2013-03-03 22:27:00,
2013-03-03 17:32:00,33.9,19.5,29.89,West,274,5.0,6.0,55,0.00,,,0.00,35,WeatherCatV1.13B119,2013-03-03 22:32:00,
2013-03-03 17:37:00,33.7,18.8,29.90,West,280,7.0,15.0,54,0.00,,,0.00,42,WeatherCatV1.13B119,2013-03-03 22:37:00,
2013-03-03 17:42:00,33.4,19.0,29.90,West,267,5.0,10.0,55,0.00,,,0.00,26,WeatherCatV1.13B119,2013-03-03 22:42:00,
2013-03-03 17:47:00,33.1,18.7,29.90,WNW,286,4.0,6.0,55,0.00,,,0.00,16,WeatherCatV1.13B119,2013-03-03 22:47:00,
2013-03-03 17:52:00,32.8,18.4,29.90,NNW,333,5.0,9.0,55,0.00,,,0.00,12,WeatherCatV1.13B119,2013-03-03 22:52:00,
2013-03-03 17:57:00,32.6,18.7,29.90,West,267,5.0,12.0,56,0.00,,,0.00,9,WeatherCatV1.13B119,2013-03-03 22:57:00,
2013-03-03 18:01:00,32.5,18.6,29.90,WNW,288,7.0,9.0,56,0.00,,,0.00,7,WeatherCatV1.13B119,2013-03-03 23:01:00,
2013-03-03 18:02:00,32.4,18.5,29.90,West,273,4.0,8.0,56,0.00,,,0.00,7,WeatherCatV1.13B119,2013-03-03 23:02:00,
2013-03-03 18:07:00,32.3,18.4,29.90,NW,320,4.0,13.0,56,0.00,,,0.00,5,WeatherCatV1.13B119,2013-03-03 23:07:00,
2013-03-03 18:12:00,32.1,18.2,29.90,West,266,5.0,10.0,56,0.00,,,0.00,0,WeatherCatV1.13B119,2013-03-03 23:12:00,
2013-03-03 18:17:00,32.0,18.1,29.90,NW,317,4.0,13.0,56,0.00,,,0.00,0,WeatherCatV1.13B119,2013-03-03 23:17:00,
2013-03-03 18:22:00,31.9,18.0,29.91,WNW,282,6.0,6.0,56,0.00,,,0.00,0,WeatherCatV1.13B119,2013-03-03 23:22:00,
2013-03-03 18:27:00,31.8,17.9,29.91,WNW,296,5.0,24.0,56,0.00,,,0.00,0,WeatherCatV1.13B119,2013-03-03 23:27:00,
2013-03-03 18:32:00,31.8,17.9,29.91,West,269,7.0,15.0,56,0.00,,,0.00,0,WeatherCatV1.13B119,2013-03-03 23:32:00,
2013-03-03 18:37:00,31.7,18.2,29.91,NW,320,9.0,15.0,57,0.00,,,0.00,0,WeatherCatV1.13B119,2013-03-03 23:37:00,
2013-03-03 18:42:00,31.6,17.7,29.91,WSW,255,3.0,11.0,56,0.00,,,0.00,0,WeatherCatV1.13B119,2013-03-03 23:42:00,
2013-03-03 18:47:00,31.5,18.0,29.92,NW,305,14.0,20.0,57,0.00,,,0.00,0,WeatherCatV1.13B119,2013-03-03 23:47:00,
2013-03-03 18:52:00,31.5,18.0,29.92,WNW,300,9.0,18.0,57,0.00,,,0.00,0,WeatherCatV1.13B119,2013-03-03 23:52:00,
2013-03-03 18:57:00,31.5,18.0,29.92,WNW,287,5.0,17.0,57,0.00,,,0.00,0,WeatherCatV1.13B119,2013-03-03 23:57:00,
2013-03-03 19:02:00,31.4,18.0,29.92,NW,318,8.0,8.0,57,0.00,,,0.00,0,WeatherCatV1.13B119,2013-03-04 00:02:00,
2013-03-03 19:07:00,31.3,17.9,29.93,WNW,285,3.0,11.0,57,0.00,,,0.00,0,WeatherCatV1.13B119,2013-03-04 00:07:00,
2013-03-03 19:11:00,31.2,18.2,29.92,West,269,6.0,12.0,58,0.00,,,0.00,0,WeatherCatV1.13B119,2013-03-04 00:11:00,
2013-03-03 19:16:00,31.1,18.1,29.92,West,264,6.0,13.0,58,0.00,,,0.00,0,WeatherCatV1.13B119,2013-03-04 00:16:00,
2013-03-03 19:31:00,30.8,18.2,29.93,WNW,287,7.0,8.0,59,0.00,,,0.00,0,WeatherCatV1.13B119,2013-03-04 00:31:00,
2013-03-03 19:36:00,30.7,18.1,29.93,WNW,299,3.0,10.0,59,0.00,,,0.00,0,WeatherCatV1.13B119,2013-03-04 00:36:00,
2013-03-03 19:41:00,30.7,18.5,29.93,WNW,303,12.0,12.0,60,0.00,,,0.00,0,WeatherCatV1.13B119,2013-03-04 00:41:00,
2013-03-03 19:46:00,30.7,18.5,29.93,West,272,3.0,10.0,60,0.00,,,0.00,0,WeatherCatV1.13B119,2013-03-04 00:46:00,
2013-03-03 19:51:00,30.6,18.4,29.93,WNW,302,6.0,11.0,60,0.00,,,0.00,0,WeatherCatV1.13B119,2013-03-04 00:51:00,
2013-03-03 19:56:00,30.6,18.4,29.93,WNW,303,7.0,13.0,60,0.00,,,0.00,0,WeatherCatV1.13B119,2013-03-04 00:56:00,
2013-03-03 20:01:00,30.5,18.7,29.93,WNW,300,9.0,12.0,61,0.00,,,0.00,0,WeatherCatV1.13B119,2013-03-04 01:01:00,
2013-03-03 20:06:00,30.5,18.7,29.94,NW,312,7.0,9.0,61,0.00,,,0.00,0,WeatherCatV1.13B119,2013-03-04 01:06:00,
2013-03-03 20:11:00,30.5,18.7,29.94,WSW,256,7.0,10.0,61,0.00,,,0.00,0,WeatherCatV1.13B119,2013-03-04 01:11:00,
2013-03-03 20:16:00,30.4,18.6,29.94,NNW,329,7.0,7.0,61,0.00,,,0.00,0,WeatherCatV1.13B119,2013-03-04 01:16:00,
2013-03-03 20:21:00,30.4,18.6,29.94,WNW,286,5.0,12.0,61,0.00,,,0.00,0,WeatherCatV1.13B119,2013-03-04 01:21:00,
2013-03-03 20:26:00,30.3,18.5,29.94,NW,315,5.0,7.0,61,0.00,,,0.00,0,WeatherCatV1.13B119,2013-03-04 01:26:00,
2013-03-03 20:31:00,30.2,18.4,29.94,WNW,299,8.0,8.0,61,0.00,,,0.00,0,WeatherCatV1.13B119,2013-03-04 01:31:00,
2013-03-03 20:36:00,30.2,18.4,29.95,WNW,297,13.0,15.0,61,0.00,,,0.00,0,WeatherCatV1.13B119,2013-03-04 01:36:00,
2013-03-03 20:41:00,30.2,18.8,29.95,NNW,338,3.0,8.0,62,0.00,,,0.00,0,WeatherCatV1.13B119,2013-03-04 01:41:00,
2013-03-03 20:46:00,30.2,18.8,29.95,North,354,2.0,12.0,62,0.00,,,0.00,0,WeatherCatV1.13B119,2013-03-04 01:46:00,
2013-03-03 20:51:00,30.2,18.4,29.95,NW,312,0.0,3.0,61,0.00,,,0.00,0,WeatherCatV1.13B119,2013-03-04 01:51:00,
2013-03-03 20:56:00,30.1,18.7,29.95,NW,304,5.0,11.0,62,0.00,,,0.00,0,WeatherCatV1.13B119,2013-03-04 01:56:00,
2013-03-03 21:01:00,30.1,18.3,29.95,West,278,7.0,12.0,61,0.00,,,0.00,0,WeatherCatV1.13B119,2013-03-04 02:01:00,
2013-03-03 21:06:00,30.1,18.7,29.95,WNW,287,5.0,9.0,62,0.00,,,0.00,0,WeatherCatV1.13B119,2013-03-04 02:06:00,
2013-03-03 21:11:00,30.0,18.6,29.95,WNW,287,4.0,6.0,62,0.00,,,0.00,0,WeatherCatV1.13B119,2013-03-04 02:11:00,
2013-03-03 21:16:00,29.9,18.5,29.95,NW,306,4.0,13.0,62,0.00,,,0.00,0,WeatherCatV1.13B119,2013-03-04 02:16:00,
2013-03-03 21:21:00,29.9,18.5,29.96,NNW,338,1.0,4.0,62,0.00,,,0.00,0,WeatherCatV1.13B119,2013-03-04 02:21:00,
2013-03-03 21:26:00,29.8,18.4,29.96,WNW,282,8.0,12.0,62,0.00,,,0.00,0,WeatherCatV1.13B119,2013-03-04 02:26:00,
2013-03-03 21:31:00,29.7,18.7,29.96,WNW,300,1.0,5.0,63,0.00,,,0.00,0,WeatherCatV1.13B119,2013-03-04 02:31:00,
2013-03-03 21:36:00,29.6,18.6,29.96,West,275,3.0,10.0,63,0.00,,,0.00,0,WeatherCatV1.13B119,2013-03-04 02:36:00,
2013-03-03 21:41:00,29.6,18.6,29.96,West,270,8.0,8.0,63,0.00,,,0.00,0,WeatherCatV1.13B119,2013-03-04 02:41:00,
2013-03-03 21:46:00,29.5,18.5,29.96,WNW,283,9.0,9.0,63,0.00,,,0.00,0,WeatherCatV1.13B119,2013-03-04 02:46:00,
2013-03-03 21:51:00,29.4,18.4,29.96,WNW,301,7.0,7.0,63,0.00,,,0.00,0,WeatherCatV1.13B119,2013-03-04 02:51:00,
2013-03-03 21:57:00,29.4,18.4,29.96,WNW,293,5.0,11.0,63,0.00,,,0.00,0,WeatherCatV1.13B119,2013-03-04 02:57:00,
2013-03-03 22:02:00,29.4,18.4,29.96,West,265,8.0,10.0,63,0.00,,,0.00,0,WeatherCatV1.13B119,2013-03-04 03:02:00,
2013-03-03 22:07:00,29.4,18.4,29.96,WNW,288,9.0,15.0,63,0.00,,,0.00,0,WeatherCatV1.13B119,2013-03-04 03:07:00,
2013-03-03 22:12:00,29.4,18.4,29.96,West,273,7.0,8.0,63,0.00,,,0.00,0,WeatherCatV1.13B119,2013-03-04 03:12:00,
2013-03-03 22:17:00,29.3,18.3,29.96,WNW,298,4.0,11.0,63,0.00,,,0.00,0,WeatherCatV1.13B119,2013-03-04 03:17:00,
2013-03-03 22:22:00,29.3,18.3,29.96,West,277,8.0,11.0,63,0.00,,,0.00,0,WeatherCatV1.13B119,2013-03-04 03:22:00,
2013-03-03 22:27:00,29.2,18.2,29.96,WNW,283,5.0,11.0,63,0.00,,,0.00,0,WeatherCatV1.13B119,2013-03-04 03:27:00,
2013-03-03 22:32:00,29.1,18.5,29.96,NW,310,6.0,13.0,64,0.00,,,0.00,0,WeatherCatV1.13B119,2013-03-04 03:32:00,
2013-03-03 22:37:00,29.1,18.5,29.96,NNW,333,4.0,10.0,64,0.00,,,0.00,0,WeatherCatV1.13B119,2013-03-04 03:37:00,
2013-03-03 22:42:00,29.1,18.5,29.96,NW,305,7.0,13.0,64,0.00,,,0.00,0,WeatherCatV1.13B119,2013-03-04 03:42:00,
2013-03-03 22:47:00,29.0,18.4,29.95,WNW,294,5.0,9.0,64,0.00,,,0.00,0,WeatherCatV1.13B119,2013-03-04 03:47:00,
2013-03-03 22:52:00,29.0,18.4,29.96,WNW,302,6.0,7.0,64,0.00,,,0.00,0,WeatherCatV1.13B119,2013-03-04 03:52:00,
2013-03-03 22:57:00,29.0,18.4,29.96,WNW,287,3.0,5.0,64,0.00,,,0.00,0,WeatherCatV1.13B119,2013-03-04 03:57:00,
2013-03-03 23:02:00,28.9,18.3,29.96,WNW,301,4.0,8.0,64,0.00,,,0.00,0,WeatherCatV1.13B119,2013-03-04 04:02:00,
2013-03-03 23:07:00,28.8,18.2,29.96,WNW,286,6.0,10.0,64,0.00,,,0.00,0,WeatherCatV1.13B119,2013-03-04 04:07:00,
2013-03-03 23:12:00,28.9,18.3,29.96,NW,305,5.0,8.0,64,0.00,,,0.00,0,WeatherCatV1.13B119,2013-03-04 04:12:00,
2013-03-03 23:17:00,28.9,18.3,29.96,West,274,3.0,3.0,64,0.00,,,0.00,0,WeatherCatV1.13B119,2013-03-04 04:17:00,
2013-03-03 23:22:00,28.8,18.2,29.96,WNW,295,5.0,5.0,64,0.00,,,0.00,0,WeatherCatV1.13B119,2013-03-04 04:22:00,
2013-03-03 23:27:00,28.8,18.2,29.97,WNW,302,3.0,4.0,64,0.00,,,0.00,0,WeatherCatV1.13B119,2013-03-04 04:27:00,
2013-03-03 23:32:00,28.8,18.2,29.96,West,272,10.0,10.0,64,0.00,,,0.00,0,WeatherCatV1.13B119,2013-03-04 04:32:00,
2013-03-03 23:37:00,28.9,17.9,29.97,WNW,295,5.0,9.0,63,0.00,,,0.00,0,WeatherCatV1.13B119,2013-03-04 04:37:00,
2013-03-03 23:42:00,28.9,17.9,29.97,NW,304,6.0,7.0,63,0.00,,,0.00,0,WeatherCatV1.13B119,2013-03-04 04:42:00,
2013-03-03 23:48:00,28.9,17.5,29.97,WNW,285,2.0,11.0,62,0.00,,,0.00,0,WeatherCatV1.13B119,2013-03-04 04:48:00,
2013-03-03 23:53:00,29.0,17.6,29.97,NNE,17,4.0,4.0,62,0.00,,,0.00,0,WeatherCatV1.13B119,2013-03-04 04:53:00,
2013-03-03 23:58:00,28.9,17.5,29.97,WNW,287,5.0,7.0,62,0.00,,,0.00,0,WeatherCatV1.13B119,2013-03-04 04:58:00,